sensor_id;sensor_type;location;lat;lon;timestamp;P1;durP1;ratioP1;P2;durP2;ratioP2
18228;SDS011;9239;50.932;3.142;2023-01-26T00:02:13;76.93;;;35.23;;
18228;SDS011;9239;50.932;3.142;2023-01-26T00:04:41;74.70;;;35.40;;
18228;SDS011;9239;50.932;3.142;2023-01-26T00:07:08;71.47;;;32.27;;
18228;SDS011;9239;50.932;3.142;2023-01-26T00:09:35;76.17;;;36.30;;
18228;SDS011;9239;50.932;3.142;2023-01-26T00:12:01;77.30;;;36.23;;
18228;SDS011;9239;50.932;3.142;2023-01-26T00:14:28;79.57;;;37.47;;
18228;SDS011;9239;50.932;3.142;2023-01-26T00:17:13;81.23;;;36.07;;
18228;SDS011;9239;50.932;3.142;2023-01-26T00:19:42;75.60;;;36.13;;
18228;SDS011;9239;50.932;3.142;2023-01-26T00:22:09;79.40;;;36.07;;
18228;SDS011;9239;50.932;3.142;2023-01-26T00:24:36;72.47;;;34.77;;
18228;SDS011;9239;50.932;3.142;2023-01-26T00:27:03;78.50;;;36.83;;
18228;SDS011;9239;50.932;3.142;2023-01-26T00:29:30;70.13;;;33.53;;
18228;SDS011;9239;50.932;3.142;2023-01-26T00:31:56;71.63;;;34.50;;
18228;SDS011;9239;50.932;3.142;2023-01-26T00:34:23;73.63;;;34.43;;
18228;SDS011;9239;50.932;3.142;2023-01-26T00:36:51;79.47;;;35.23;;
18228;SDS011;9239;50.932;3.142;2023-01-26T00:39:18;72.00;;;33.53;;
18228;SDS011;9239;50.932;3.142;2023-01-26T00:41:45;69.90;;;33.50;;
18228;SDS011;9239;50.932;3.142;2023-01-26T00:44:29;65.03;;;34.07;;
18228;SDS011;9239;50.932;3.142;2023-01-26T00:46:56;64.97;;;33.97;;
18228;SDS011;9239;50.932;3.142;2023-01-26T00:49:23;67.50;;;32.37;;
18228;SDS011;9239;50.932;3.142;2023-01-26T00:51:51;70.83;;;34.07;;
18228;SDS011;9239;50.932;3.142;2023-01-26T00:54:18;63.53;;;31.10;;
18228;SDS011;9239;50.932;3.142;2023-01-26T00:56:45;68.17;;;32.93;;
18228;SDS011;9239;50.932;3.142;2023-01-26T00:59:12;63.63;;;32.67;;
18228;SDS011;9239;50.932;3.142;2023-01-26T01:01:39;63.40;;;32.10;;
18228;SDS011;9239;50.932;3.142;2023-01-26T01:04:05;62.00;;;32.23;;
18228;SDS011;9239;50.932;3.142;2023-01-26T01:06:32;67.30;;;33.53;;
18228;SDS011;9239;50.932;3.142;2023-01-26T01:09:00;61.43;;;31.00;;
18228;SDS011;9239;50.932;3.142;2023-01-26T01:11:28;71.50;;;33.93;;
18228;SDS011;9239;50.932;3.142;2023-01-26T01:13:54;66.30;;;31.13;;
18228;SDS011;9239;50.932;3.142;2023-01-26T01:16:21;57.97;;;29.83;;
18228;SDS011;9239;50.932;3.142;2023-01-26T01:18:51;66.53;;;32.43;;
18228;SDS011;9239;50.932;3.142;2023-01-26T01:21:18;53.30;;;30.00;;
18228;SDS011;9239;50.932;3.142;2023-01-26T01:23:45;59.03;;;29.57;;
18228;SDS011;9239;50.932;3.142;2023-01-26T01:26:14;57.70;;;28.27;;
18228;SDS011;9239;50.932;3.142;2023-01-26T01:28:42;51.43;;;28.07;;
18228;SDS011;9239;50.932;3.142;2023-01-26T01:31:10;54.50;;;27.50;;
18228;SDS011;9239;50.932;3.142;2023-01-26T01:33:39;53.33;;;28.50;;
18228;SDS011;9239;50.932;3.142;2023-01-26T01:36:07;52.33;;;29.30;;
18228;SDS011;9239;50.932;3.142;2023-01-26T01:38:35;55.17;;;28.10;;
18228;SDS011;9239;50.932;3.142;2023-01-26T01:41:02;59.27;;;28.07;;
18228;SDS011;9239;50.932;3.142;2023-01-26T01:43:31;56.60;;;29.57;;
18228;SDS011;9239;50.932;3.142;2023-01-26T01:45:59;56.93;;;28.60;;
18228;SDS011;9239;50.932;3.142;2023-01-26T01:48:27;60.27;;;30.17;;
18228;SDS011;9239;50.932;3.142;2023-01-26T01:50:58;53.70;;;29.57;;
18228;SDS011;9239;50.932;3.142;2023-01-26T01:53:29;55.60;;;29.63;;
18228;SDS011;9239;50.932;3.142;2023-01-26T01:55:58;50.80;;;27.77;;
18228;SDS011;9239;50.932;3.142;2023-01-26T01:58:28;57.87;;;30.63;;
18228;SDS011;9239;50.932;3.142;2023-01-26T02:00:57;57.10;;;28.63;;
18228;SDS011;9239;50.932;3.142;2023-01-26T02:03:24;55.90;;;27.90;;
18228;SDS011;9239;50.932;3.142;2023-01-26T02:05:54;56.27;;;29.57;;
18228;SDS011;9239;50.932;3.142;2023-01-26T02:08:24;58.63;;;30.27;;
18228;SDS011;9239;50.932;3.142;2023-01-26T02:10:54;57.43;;;32.23;;
18228;SDS011;9239;50.932;3.142;2023-01-26T02:13:25;62.47;;;31.87;;
18228;SDS011;9239;50.932;3.142;2023-01-26T02:15:53;65.53;;;33.93;;
18228;SDS011;9239;50.932;3.142;2023-01-26T02:18:21;69.60;;;33.77;;
18228;SDS011;9239;50.932;3.142;2023-01-26T02:20:48;72.20;;;33.73;;
18228;SDS011;9239;50.932;3.142;2023-01-26T02:23:23;73.90;;;33.80;;
18228;SDS011;9239;50.932;3.142;2023-01-26T02:26:03;73.30;;;33.10;;
18228;SDS011;9239;50.932;3.142;2023-01-26T02:28:31;69.43;;;35.23;;
18228;SDS011;9239;50.932;3.142;2023-01-26T02:30:58;65.27;;;34.57;;
18228;SDS011;9239;50.932;3.142;2023-01-26T02:33:26;66.53;;;32.07;;
18228;SDS011;9239;50.932;3.142;2023-01-26T02:35:54;66.13;;;34.47;;
18228;SDS011;9239;50.932;3.142;2023-01-26T02:38:21;63.47;;;31.37;;
18228;SDS011;9239;50.932;3.142;2023-01-26T02:40:52;64.73;;;31.33;;
18228;SDS011;9239;50.932;3.142;2023-01-26T02:43:22;65.57;;;32.33;;
18228;SDS011;9239;50.932;3.142;2023-01-26T02:45:50;61.87;;;30.80;;
18228;SDS011;9239;50.932;3.142;2023-01-26T02:48:17;59.20;;;30.23;;
18228;SDS011;9239;50.932;3.142;2023-01-26T02:51:05;64.10;;;31.43;;
18228;SDS011;9239;50.932;3.142;2023-01-26T02:53:31;70.23;;;31.93;;
18228;SDS011;9239;50.932;3.142;2023-01-26T02:55:58;64.23;;;30.67;;
18228;SDS011;9239;50.932;3.142;2023-01-26T02:58:25;65.93;;;32.67;;
18228;SDS011;9239;50.932;3.142;2023-01-26T03:00:52;63.20;;;30.53;;
18228;SDS011;9239;50.932;3.142;2023-01-26T03:03:19;65.90;;;30.10;;
18228;SDS011;9239;50.932;3.142;2023-01-26T03:05:49;67.97;;;31.60;;
18228;SDS011;9239;50.932;3.142;2023-01-26T03:08:16;64.50;;;30.83;;
18228;SDS011;9239;50.932;3.142;2023-01-26T03:10:43;57.37;;;30.07;;
18228;SDS011;9239;50.932;3.142;2023-01-26T03:13:11;62.50;;;30.07;;
18228;SDS011;9239;50.932;3.142;2023-01-26T03:15:39;59.93;;;29.90;;
18228;SDS011;9239;50.932;3.142;2023-01-26T03:18:12;59.07;;;29.83;;
18228;SDS011;9239;50.932;3.142;2023-01-26T03:20:54;60.90;;;29.63;;
18228;SDS011;9239;50.932;3.142;2023-01-26T03:23:38;65.40;;;30.60;;
18228;SDS011;9239;50.932;3.142;2023-01-26T03:26:23;59.53;;;29.87;;
18228;SDS011;9239;50.932;3.142;2023-01-26T03:29:07;56.63;;;28.07;;
18228;SDS011;9239;50.932;3.142;2023-01-26T03:31:35;63.73;;;28.90;;
18228;SDS011;9239;50.932;3.142;2023-01-26T03:34:02;66.63;;;32.13;;
18228;SDS011;9239;50.932;3.142;2023-01-26T03:36:29;63.03;;;32.40;;
18228;SDS011;9239;50.932;3.142;2023-01-26T03:38:56;61.27;;;31.27;;
18228;SDS011;9239;50.932;3.142;2023-01-26T03:41:23;68.93;;;31.87;;
18228;SDS011;9239;50.932;3.142;2023-01-26T03:44:07;59.27;;;30.57;;
18228;SDS011;9239;50.932;3.142;2023-01-26T03:46:52;62.37;;;31.40;;
18228;SDS011;9239;50.932;3.142;2023-01-26T03:49:37;66.30;;;35.00;;
18228;SDS011;9239;50.932;3.142;2023-01-26T03:52:21;64.13;;;33.00;;
18228;SDS011;9239;50.932;3.142;2023-01-26T03:55:06;70.93;;;31.77;;
18228;SDS011;9239;50.932;3.142;2023-01-26T03:57:51;67.47;;;32.43;;
18228;SDS011;9239;50.932;3.142;2023-01-26T04:00:18;63.47;;;31.57;;
18228;SDS011;9239;50.932;3.142;2023-01-26T04:02:46;67.27;;;31.53;;
18228;SDS011;9239;50.932;3.142;2023-01-26T04:05:31;66.27;;;32.43;;
18228;SDS011;9239;50.932;3.142;2023-01-26T04:08:15;64.63;;;30.43;;
18228;SDS011;9239;50.932;3.142;2023-01-26T04:10:48;68.00;;;33.13;;
18228;SDS011;9239;50.932;3.142;2023-01-26T04:13:16;67.13;;;32.17;;
18228;SDS011;9239;50.932;3.142;2023-01-26T04:16:01;65.10;;;31.37;;
18228;SDS011;9239;50.932;3.142;2023-01-26T04:18:47;68.37;;;32.30;;
18228;SDS011;9239;50.932;3.142;2023-01-26T04:21:32;70.97;;;31.57;;
18228;SDS011;9239;50.932;3.142;2023-01-26T04:24:00;65.27;;;31.00;;
18228;SDS011;9239;50.932;3.142;2023-01-26T04:26:33;70.43;;;30.90;;
18228;SDS011;9239;50.932;3.142;2023-01-26T04:29:02;65.97;;;30.27;;
18228;SDS011;9239;50.932;3.142;2023-01-26T04:31:30;63.40;;;30.67;;
18228;SDS011;9239;50.932;3.142;2023-01-26T04:33:58;69.63;;;32.40;;
18228;SDS011;9239;50.932;3.142;2023-01-26T04:36:26;67.07;;;29.53;;
18228;SDS011;9239;50.932;3.142;2023-01-26T04:38:53;62.53;;;30.37;;
18228;SDS011;9239;50.932;3.142;2023-01-26T04:41:20;69.87;;;30.93;;
18228;SDS011;9239;50.932;3.142;2023-01-26T04:43:47;68.50;;;30.00;;
18228;SDS011;9239;50.932;3.142;2023-01-26T04:46:13;73.10;;;32.30;;
18228;SDS011;9239;50.932;3.142;2023-01-26T04:48:41;69.23;;;31.53;;
18228;SDS011;9239;50.932;3.142;2023-01-26T04:51:11;67.17;;;30.67;;
18228;SDS011;9239;50.932;3.142;2023-01-26T04:53:39;68.40;;;30.60;;
18228;SDS011;9239;50.932;3.142;2023-01-26T04:56:06;61.57;;;32.53;;
18228;SDS011;9239;50.932;3.142;2023-01-26T04:58:37;72.00;;;31.50;;
18228;SDS011;9239;50.932;3.142;2023-01-26T05:01:04;67.93;;;30.93;;
18228;SDS011;9239;50.932;3.142;2023-01-26T05:03:31;66.93;;;32.63;;
18228;SDS011;9239;50.932;3.142;2023-01-26T05:05:58;70.60;;;33.13;;
18228;SDS011;9239;50.932;3.142;2023-01-26T05:08:26;67.30;;;33.20;;
18228;SDS011;9239;50.932;3.142;2023-01-26T05:10:53;71.13;;;32.70;;
18228;SDS011;9239;50.932;3.142;2023-01-26T05:13:20;66.67;;;31.37;;
18228;SDS011;9239;50.932;3.142;2023-01-26T05:15:47;71.80;;;34.27;;
18228;SDS011;9239;50.932;3.142;2023-01-26T05:18:13;71.73;;;32.77;;
18228;SDS011;9239;50.932;3.142;2023-01-26T05:20:40;66.10;;;31.87;;
18228;SDS011;9239;50.932;3.142;2023-01-26T05:23:07;72.13;;;33.37;;
18228;SDS011;9239;50.932;3.142;2023-01-26T05:25:35;72.37;;;34.37;;
18228;SDS011;9239;50.932;3.142;2023-01-26T05:28:03;79.00;;;34.73;;
18228;SDS011;9239;50.932;3.142;2023-01-26T05:30:30;70.40;;;35.07;;
18228;SDS011;9239;50.932;3.142;2023-01-26T05:32:59;75.33;;;33.27;;
18228;SDS011;9239;50.932;3.142;2023-01-26T05:35:26;63.50;;;31.87;;
18228;SDS011;9239;50.932;3.142;2023-01-26T05:37:53;65.27;;;33.07;;
18228;SDS011;9239;50.932;3.142;2023-01-26T05:40:20;66.27;;;32.20;;
18228;SDS011;9239;50.932;3.142;2023-01-26T05:42:50;68.70;;;31.63;;
18228;SDS011;9239;50.932;3.142;2023-01-26T05:45:17;64.80;;;30.93;;
18228;SDS011;9239;50.932;3.142;2023-01-26T05:47:44;62.07;;;31.27;;
18228;SDS011;9239;50.932;3.142;2023-01-26T05:50:12;66.77;;;30.80;;
18228;SDS011;9239;50.932;3.142;2023-01-26T05:52:40;71.80;;;36.23;;
18228;SDS011;9239;50.932;3.142;2023-01-26T05:55:07;70.20;;;34.70;;
18228;SDS011;9239;50.932;3.142;2023-01-26T05:57:34;76.23;;;36.20;;
18228;SDS011;9239;50.932;3.142;2023-01-26T06:00:03;65.17;;;33.40;;
18228;SDS011;9239;50.932;3.142;2023-01-26T06:02:31;61.13;;;32.03;;
18228;SDS011;9239;50.932;3.142;2023-01-26T06:04:58;65.33;;;30.60;;
18228;SDS011;9239;50.932;3.142;2023-01-26T06:07:25;68.07;;;32.63;;
18228;SDS011;9239;50.932;3.142;2023-01-26T06:09:51;74.07;;;33.57;;
18228;SDS011;9239;50.932;3.142;2023-01-26T06:12:19;71.00;;;32.37;;
18228;SDS011;9239;50.932;3.142;2023-01-26T06:14:46;66.77;;;30.97;;
18228;SDS011;9239;50.932;3.142;2023-01-26T06:17:15;66.97;;;32.27;;
18228;SDS011;9239;50.932;3.142;2023-01-26T06:19:43;70.47;;;34.07;;
18228;SDS011;9239;50.932;3.142;2023-01-26T06:22:10;68.50;;;33.77;;
18228;SDS011;9239;50.932;3.142;2023-01-26T06:24:38;78.43;;;35.13;;
18228;SDS011;9239;50.932;3.142;2023-01-26T06:27:05;66.70;;;34.40;;
18228;SDS011;9239;50.932;3.142;2023-01-26T06:29:38;62.90;;;32.30;;
18228;SDS011;9239;50.932;3.142;2023-01-26T06:32:06;61.47;;;30.87;;
18228;SDS011;9239;50.932;3.142;2023-01-26T06:34:34;65.13;;;31.53;;
18228;SDS011;9239;50.932;3.142;2023-01-26T06:37:01;56.73;;;26.83;;
18228;SDS011;9239;50.932;3.142;2023-01-26T06:39:27;58.20;;;26.00;;
18228;SDS011;9239;50.932;3.142;2023-01-26T06:41:55;42.23;;;21.83;;
18228;SDS011;9239;50.932;3.142;2023-01-26T06:44:22;39.03;;;18.53;;
18228;SDS011;9239;50.932;3.142;2023-01-26T06:46:48;30.10;;;15.00;;
18228;SDS011;9239;50.932;3.142;2023-01-26T06:49:15;27.30;;;13.27;;
18228;SDS011;9239;50.932;3.142;2023-01-26T06:51:44;20.10;;;11.53;;
18228;SDS011;9239;50.932;3.142;2023-01-26T06:54:17;18.47;;;12.20;;
18228;SDS011;9239;50.932;3.142;2023-01-26T06:56:44;16.87;;;12.67;;
18228;SDS011;9239;50.932;3.142;2023-01-26T06:59:11;19.00;;;13.40;;
18228;SDS011;9239;50.932;3.142;2023-01-26T07:01:39;21.20;;;13.77;;
18228;SDS011;9239;50.932;3.142;2023-01-26T07:04:08;21.73;;;16.57;;
18228;SDS011;9239;50.932;3.142;2023-01-26T07:06:35;20.27;;;16.00;;
18228;SDS011;9239;50.932;3.142;2023-01-26T07:09:03;28.47;;;17.40;;
18228;SDS011;9239;50.932;3.142;2023-01-26T07:11:31;25.27;;;18.10;;
18228;SDS011;9239;50.932;3.142;2023-01-26T07:13:57;26.47;;;18.53;;
18228;SDS011;9239;50.932;3.142;2023-01-26T07:16:25;27.00;;;20.73;;
18228;SDS011;9239;50.932;3.142;2023-01-26T07:18:52;33.87;;;23.13;;
18228;SDS011;9239;50.932;3.142;2023-01-26T07:21:19;35.67;;;24.03;;
18228;SDS011;9239;50.932;3.142;2023-01-26T07:23:47;36.67;;;23.50;;
18228;SDS011;9239;50.932;3.142;2023-01-26T07:26:16;37.77;;;26.47;;
18228;SDS011;9239;50.932;3.142;2023-01-26T07:28:43;38.33;;;26.33;;
18228;SDS011;9239;50.932;3.142;2023-01-26T07:31:10;38.83;;;26.70;;
18228;SDS011;9239;50.932;3.142;2023-01-26T07:33:37;38.13;;;26.80;;
18228;SDS011;9239;50.932;3.142;2023-01-26T07:36:04;39.60;;;27.37;;
18228;SDS011;9239;50.932;3.142;2023-01-26T07:38:31;43.20;;;29.27;;
18228;SDS011;9239;50.932;3.142;2023-01-26T07:41:02;41.43;;;29.73;;
18228;SDS011;9239;50.932;3.142;2023-01-26T07:43:32;43.60;;;31.60;;
18228;SDS011;9239;50.932;3.142;2023-01-26T07:46:00;43.40;;;29.60;;
18228;SDS011;9239;50.932;3.142;2023-01-26T07:48:27;47.70;;;31.10;;
18228;SDS011;9239;50.932;3.142;2023-01-26T07:50:56;45.47;;;30.10;;
18228;SDS011;9239;50.932;3.142;2023-01-26T07:53:26;40.03;;;29.60;;
18228;SDS011;9239;50.932;3.142;2023-01-26T07:55:54;45.57;;;31.37;;
18228;SDS011;9239;50.932;3.142;2023-01-26T07:58:30;43.27;;;29.90;;
18228;SDS011;9239;50.932;3.142;2023-01-26T08:01:03;46.70;;;31.33;;
18228;SDS011;9239;50.932;3.142;2023-01-26T08:03:34;49.03;;;30.50;;
18228;SDS011;9239;50.932;3.142;2023-01-26T08:06:01;44.10;;;29.50;;
18228;SDS011;9239;50.932;3.142;2023-01-26T08:08:28;39.93;;;30.00;;
18228;SDS011;9239;50.932;3.142;2023-01-26T08:10:55;44.77;;;28.63;;
18228;SDS011;9239;50.932;3.142;2023-01-26T08:13:23;36.77;;;26.80;;
18228;SDS011;9239;50.932;3.142;2023-01-26T08:15:51;37.87;;;25.93;;
18228;SDS011;9239;50.932;3.142;2023-01-26T08:18:18;36.77;;;24.43;;
18228;SDS011;9239;50.932;3.142;2023-01-26T08:20:48;35.90;;;24.67;;
18228;SDS011;9239;50.932;3.142;2023-01-26T08:23:16;36.17;;;23.97;;
18228;SDS011;9239;50.932;3.142;2023-01-26T08:25:43;35.50;;;23.07;;
18228;SDS011;9239;50.932;3.142;2023-01-26T08:28:09;38.23;;;21.60;;
18228;SDS011;9239;50.932;3.142;2023-01-26T08:30:36;33.40;;;18.80;;
18228;SDS011;9239;50.932;3.142;2023-01-26T08:33:05;36.43;;;19.40;;
18228;SDS011;9239;50.932;3.142;2023-01-26T08:35:32;35.13;;;17.07;;
18228;SDS011;9239;50.932;3.142;2023-01-26T08:37:59;25.00;;;12.57;;
18228;SDS011;9239;50.932;3.142;2023-01-26T08:40:26;26.93;;;13.17;;
18228;SDS011;9239;50.932;3.142;2023-01-26T08:42:53;30.90;;;11.17;;
18228;SDS011;9239;50.932;3.142;2023-01-26T08:45:20;26.67;;;7.83;;
18228;SDS011;9239;50.932;3.142;2023-01-26T08:47:47;19.17;;;6.27;;
18228;SDS011;9239;50.932;3.142;2023-01-26T08:50:17;29.57;;;6.47;;
18228;SDS011;9239;50.932;3.142;2023-01-26T08:52:44;76.90;;;47.53;;
18228;SDS011;9239;50.932;3.142;2023-01-26T08:55:11;31.57;;;6.33;;
18228;SDS011;9239;50.932;3.142;2023-01-26T08:57:38;29.30;;;6.10;;
18228;SDS011;9239;50.932;3.142;2023-01-26T09:00:06;24.60;;;5.40;;
18228;SDS011;9239;50.932;3.142;2023-01-26T09:02:34;25.47;;;6.33;;
18228;SDS011;9239;50.932;3.142;2023-01-26T09:05:01;22.47;;;7.27;;
18228;SDS011;9239;50.932;3.142;2023-01-26T09:07:29;25.73;;;6.63;;
18228;SDS011;9239;50.932;3.142;2023-01-26T09:09:56;27.33;;;7.23;;
18228;SDS011;9239;50.932;3.142;2023-01-26T09:12:22;21.50;;;5.70;;
18228;SDS011;9239;50.932;3.142;2023-01-26T09:14:49;24.07;;;5.67;;
18228;SDS011;9239;50.932;3.142;2023-01-26T09:17:16;27.27;;;6.03;;
18228;SDS011;9239;50.932;3.142;2023-01-26T09:19:43;19.30;;;5.70;;
18228;SDS011;9239;50.932;3.142;2023-01-26T09:22:10;17.73;;;6.03;;
18228;SDS011;9239;50.932;3.142;2023-01-26T09:24:38;17.43;;;4.53;;
18228;SDS011;9239;50.932;3.142;2023-01-26T09:27:05;19.77;;;4.80;;
18228;SDS011;9239;50.932;3.142;2023-01-26T09:29:32;28.60;;;6.17;;
18228;SDS011;9239;50.932;3.142;2023-01-26T09:31:59;16.07;;;4.77;;
18228;SDS011;9239;50.932;3.142;2023-01-26T09:34:26;21.37;;;5.07;;
18228;SDS011;9239;50.932;3.142;2023-01-26T09:36:53;15.33;;;3.87;;
18228;SDS011;9239;50.932;3.142;2023-01-26T09:39:20;14.77;;;4.93;;
18228;SDS011;9239;50.932;3.142;2023-01-26T09:41:57;13.73;;;3.40;;
18228;SDS011;9239;50.932;3.142;2023-01-26T09:44:42;14.50;;;3.60;;
18228;SDS011;9239;50.932;3.142;2023-01-26T09:47:16;15.63;;;4.10;;
18228;SDS011;9239;50.932;3.142;2023-01-26T09:49:52;17.13;;;4.70;;
18228;SDS011;9239;50.932;3.142;2023-01-26T09:52:25;16.53;;;5.97;;
18228;SDS011;9239;50.932;3.142;2023-01-26T09:54:54;21.53;;;5.50;;
18228;SDS011;9239;50.932;3.142;2023-01-26T09:57:28;15.50;;;4.00;;
18228;SDS011;9239;50.932;3.142;2023-01-26T10:00:03;18.73;;;4.97;;
18228;SDS011;9239;50.932;3.142;2023-01-26T10:02:37;15.03;;;4.20;;
18228;SDS011;9239;50.932;3.142;2023-01-26T10:05:15;22.50;;;4.07;;
18228;SDS011;9239;50.932;3.142;2023-01-26T10:07:47;19.43;;;4.63;;
18228;SDS011;9239;50.932;3.142;2023-01-26T10:10:14;15.57;;;3.90;;
18228;SDS011;9239;50.932;3.142;2023-01-26T10:12:46;15.20;;;4.33;;
18228;SDS011;9239;50.932;3.142;2023-01-26T10:15:18;14.43;;;3.53;;
18228;SDS011;9239;50.932;3.142;2023-01-26T10:17:54;20.73;;;4.10;;
18228;SDS011;9239;50.932;3.142;2023-01-26T10:20:26;15.70;;;4.80;;
18228;SDS011;9239;50.932;3.142;2023-01-26T10:22:58;20.70;;;7.63;;
18228;SDS011;9239;50.932;3.142;2023-01-26T10:25:30;18.13;;;4.00;;
18228;SDS011;9239;50.932;3.142;2023-01-26T10:28:03;17.77;;;4.20;;
18228;SDS011;9239;50.932;3.142;2023-01-26T10:30:38;15.70;;;4.77;;
18228;SDS011;9239;50.932;3.142;2023-01-26T10:33:09;15.37;;;3.77;;
18228;SDS011;9239;50.932;3.142;2023-01-26T10:35:40;24.27;;;5.27;;
18228;SDS011;9239;50.932;3.142;2023-01-26T10:40:53;22.33;;;4.10;;
18228;SDS011;9239;50.932;3.142;2023-01-26T10:43:22;17.30;;;4.10;;
18228;SDS011;9239;50.932;3.142;2023-01-26T10:45:50;15.40;;;2.73;;
18228;SDS011;9239;50.932;3.142;2023-01-26T10:48:17;14.83;;;3.87;;
18228;SDS011;9239;50.932;3.142;2023-01-26T10:50:46;12.67;;;3.87;;
18228;SDS011;9239;50.932;3.142;2023-01-26T10:53:14;15.70;;;5.00;;
18228;SDS011;9239;50.932;3.142;2023-01-26T10:55:43;10.03;;;3.80;;
18228;SDS011;9239;50.932;3.142;2023-01-26T10:58:42;16.00;;;3.53;;
18228;SDS011;9239;50.932;3.142;2023-01-26T11:01:12;12.87;;;3.43;;
18228;SDS011;9239;50.932;3.142;2023-01-26T11:03:42;17.43;;;3.97;;
18228;SDS011;9239;50.932;3.142;2023-01-26T11:06:27;17.13;;;4.10;;
18228;SDS011;9239;50.932;3.142;2023-01-26T11:08:59;16.37;;;3.37;;
18228;SDS011;9239;50.932;3.142;2023-01-26T11:11:34;15.50;;;3.50;;
18228;SDS011;9239;50.932;3.142;2023-01-26T11:14:10;16.77;;;3.93;;
18228;SDS011;9239;50.932;3.142;2023-01-26T11:16:40;27.30;;;12.83;;
18228;SDS011;9239;50.932;3.142;2023-01-26T11:19:12;13.90;;;3.87;;
18228;SDS011;9239;50.932;3.142;2023-01-26T11:21:45;15.53;;;3.60;;
18228;SDS011;9239;50.932;3.142;2023-01-26T11:24:14;13.23;;;3.40;;
18228;SDS011;9239;50.932;3.142;2023-01-26T11:26:49;9.70;;;3.93;;
18228;SDS011;9239;50.932;3.142;2023-01-26T11:29:48;9.73;;;3.27;;
18228;SDS011;9239;50.932;3.142;2023-01-26T11:32:25;15.43;;;3.10;;
18228;SDS011;9239;50.932;3.142;2023-01-26T11:35:01;20.57;;;4.33;;
18228;SDS011;9239;50.932;3.142;2023-01-26T11:37:37;13.83;;;3.67;;
18228;SDS011;9239;50.932;3.142;2023-01-26T11:40:13;11.33;;;3.97;;
18228;SDS011;9239;50.932;3.142;2023-01-26T11:42:50;7.23;;;3.17;;
18228;SDS011;9239;50.932;3.142;2023-01-26T11:45:40;11.37;;;3.37;;
18228;SDS011;9239;50.932;3.142;2023-01-26T11:48:28;8.40;;;2.93;;
18228;SDS011;9239;50.932;3.142;2023-01-26T11:51:06;14.13;;;3.30;;
18228;SDS011;9239;50.932;3.142;2023-01-26T11:56:41;11.43;;;2.80;;
18228;SDS011;9239;50.932;3.142;2023-01-26T11:59:15;12.73;;;3.00;;
18228;SDS011;9239;50.932;3.142;2023-01-26T12:01:47;17.10;;;4.17;;
18228;SDS011;9239;50.932;3.142;2023-01-26T12:04:19;9.90;;;3.20;;
18228;SDS011;9239;50.932;3.142;2023-01-26T12:06:47;11.20;;;3.20;;
18228;SDS011;9239;50.932;3.142;2023-01-26T12:09:20;10.30;;;3.30;;
18228;SDS011;9239;50.932;3.142;2023-01-26T12:11:56;12.23;;;3.90;;
18228;SDS011;9239;50.932;3.142;2023-01-26T12:14:28;12.43;;;3.30;;
18228;SDS011;9239;50.932;3.142;2023-01-26T12:17:08;12.93;;;3.13;;
18228;SDS011;9239;50.932;3.142;2023-01-26T12:19:45;8.43;;;2.77;;
18228;SDS011;9239;50.932;3.142;2023-01-26T12:22:19;13.10;;;4.30;;
18228;SDS011;9239;50.932;3.142;2023-01-26T12:24:51;11.50;;;3.00;;
18228;SDS011;9239;50.932;3.142;2023-01-26T12:27:22;11.20;;;3.30;;
18228;SDS011;9239;50.932;3.142;2023-01-26T12:29:54;13.20;;;3.23;;
18228;SDS011;9239;50.932;3.142;2023-01-26T12:32:29;16.77;;;3.30;;
18228;SDS011;9239;50.932;3.142;2023-01-26T12:34:56;9.30;;;2.47;;
18228;SDS011;9239;50.932;3.142;2023-01-26T12:40:13;5.27;;;2.53;;
18228;SDS011;9239;50.932;3.142;2023-01-26T12:42:53;12.27;;;4.30;;
18228;SDS011;9239;50.932;3.142;2023-01-26T12:45:29;9.90;;;2.77;;
18228;SDS011;9239;50.932;3.142;2023-01-26T12:48:03;16.10;;;3.90;;
18228;SDS011;9239;50.932;3.142;2023-01-26T12:50:37;11.07;;;3.43;;
18228;SDS011;9239;50.932;3.142;2023-01-26T12:53:06;12.70;;;2.87;;
18228;SDS011;9239;50.932;3.142;2023-01-26T12:55:38;9.60;;;3.27;;
18228;SDS011;9239;50.932;3.142;2023-01-26T12:58:09;13.53;;;2.97;;
18228;SDS011;9239;50.932;3.142;2023-01-26T13:00:45;12.87;;;3.43;;
18228;SDS011;9239;50.932;3.142;2023-01-26T13:03:20;8.40;;;2.63;;
18228;SDS011;9239;50.932;3.142;2023-01-26T13:05:53;13.77;;;2.97;;
18228;SDS011;9239;50.932;3.142;2023-01-26T13:11:50;8.60;;;2.20;;
18228;SDS011;9239;50.932;3.142;2023-01-26T13:14:25;10.70;;;2.60;;
18228;SDS011;9239;50.932;3.142;2023-01-26T13:16:57;12.50;;;2.87;;
18228;SDS011;9239;50.932;3.142;2023-01-26T13:20:19;13.73;;;4.07;;
18228;SDS011;9239;50.932;3.142;2023-01-26T13:29:31;8.27;;;2.80;;
18228;SDS011;9239;50.932;3.142;2023-01-26T13:32:01;7.07;;;1.77;;
18228;SDS011;9239;50.932;3.142;2023-01-26T13:34:43;8.60;;;2.73;;
18228;SDS011;9239;50.932;3.142;2023-01-26T13:37:15;10.67;;;2.90;;
18228;SDS011;9239;50.932;3.142;2023-01-26T13:39:51;8.23;;;2.70;;
18228;SDS011;9239;50.932;3.142;2023-01-26T13:42:21;7.43;;;2.90;;
18228;SDS011;9239;50.932;3.142;2023-01-26T13:44:51;5.57;;;2.07;;
18228;SDS011;9239;50.932;3.142;2023-01-26T13:47:25;7.57;;;2.30;;
18228;SDS011;9239;50.932;3.142;2023-01-26T13:49:56;7.20;;;2.33;;
18228;SDS011;9239;50.932;3.142;2023-01-26T13:52:26;6.10;;;2.63;;
18228;SDS011;9239;50.932;3.142;2023-01-26T13:54:54;11.90;;;2.70;;
18228;SDS011;9239;50.932;3.142;2023-01-26T13:57:22;10.17;;;2.60;;
18228;SDS011;9239;50.932;3.142;2023-01-26T13:59:51;9.23;;;2.50;;
18228;SDS011;9239;50.932;3.142;2023-01-26T14:02:20;10.90;;;3.27;;
18228;SDS011;9239;50.932;3.142;2023-01-26T14:04:52;8.67;;;2.40;;
18228;SDS011;9239;50.932;3.142;2023-01-26T14:07:25;9.53;;;2.77;;
18228;SDS011;9239;50.932;3.142;2023-01-26T14:09:55;6.07;;;2.53;;
18228;SDS011;9239;50.932;3.142;2023-01-26T14:12:26;15.33;;;3.53;;
18228;SDS011;9239;50.932;3.142;2023-01-26T14:14:56;11.43;;;2.70;;
18228;SDS011;9239;50.932;3.142;2023-01-26T14:17:26;11.73;;;2.93;;
18228;SDS011;9239;50.932;3.142;2023-01-26T14:19:54;7.40;;;2.53;;
18228;SDS011;9239;50.932;3.142;2023-01-26T14:22:22;10.03;;;2.87;;
18228;SDS011;9239;50.932;3.142;2023-01-26T14:24:51;12.43;;;3.27;;
18228;SDS011;9239;50.932;3.142;2023-01-26T14:27:26;10.30;;;2.70;;
18228;SDS011;9239;50.932;3.142;2023-01-26T14:29:56;6.40;;;2.40;;
18228;SDS011;9239;50.932;3.142;2023-01-26T14:32:23;9.00;;;2.60;;
18228;SDS011;9239;50.932;3.142;2023-01-26T14:34:54;8.17;;;3.37;;
18228;SDS011;9239;50.932;3.142;2023-01-26T14:37:22;11.10;;;2.77;;
18228;SDS011;9239;50.932;3.142;2023-01-26T14:42:40;7.40;;;2.27;;
18228;SDS011;9239;50.932;3.142;2023-01-26T14:45:10;7.80;;;2.23;;
18228;SDS011;9239;50.932;3.142;2023-01-26T14:47:38;10.20;;;2.67;;
18228;SDS011;9239;50.932;3.142;2023-01-26T14:50:09;7.27;;;2.70;;
18228;SDS011;9239;50.932;3.142;2023-01-26T14:52:42;5.40;;;1.97;;
18228;SDS011;9239;50.932;3.142;2023-01-26T14:55:13;13.03;;;2.70;;
18228;SDS011;9239;50.932;3.142;2023-01-26T14:57:46;5.80;;;2.10;;
18228;SDS011;9239;50.932;3.142;2023-01-26T15:00:21;7.63;;;2.27;;
18228;SDS011;9239;50.932;3.142;2023-01-26T15:02:52;8.57;;;2.50;;
18228;SDS011;9239;50.932;3.142;2023-01-26T15:05:22;10.53;;;2.50;;
18228;SDS011;9239;50.932;3.142;2023-01-26T15:07:57;11.57;;;3.77;;
18228;SDS011;9239;50.932;3.142;2023-01-26T15:10:36;6.83;;;2.33;;
18228;SDS011;9239;50.932;3.142;2023-01-26T15:13:06;9.80;;;2.37;;
18228;SDS011;9239;50.932;3.142;2023-01-26T15:15:44;5.17;;;2.23;;
18228;SDS011;9239;50.932;3.142;2023-01-26T15:18:17;10.70;;;3.10;;
18228;SDS011;9239;50.932;3.142;2023-01-26T15:20:48;7.77;;;2.30;;
18228;SDS011;9239;50.932;3.142;2023-01-26T15:23:27;10.00;;;2.70;;